sensor_id;sensor_type;location;lat;lon;timestamp;temperature;humidity
28552;DHT22;15752;49.560;8.708;2023-02-01T00:01:28;8.60;99.90
28552;DHT22;15752;49.560;8.708;2023-02-01T00:03:57;9.00;99.90
28552;DHT22;15752;49.560;8.708;2023-02-01T00:06:25;8.70;99.90
28552;DHT22;15752;49.560;8.708;2023-02-01T00:08:54;8.70;99.90
28552;DHT22;15752;49.560;8.708;2023-02-01T00:11:23;8.70;99.90
28552;DHT22;15752;49.560;8.708;2023-02-01T00:13:52;8.70;99.90
28552;DHT22;15752;49.560;8.708;2023-02-01T00:16:22;8.90;99.90
28552;DHT22;15752;49.560;8.708;2023-02-01T00:18:57;8.70;99.90
28552;DHT22;15752;49.560;8.708;2023-02-01T00:21:26;8.70;99.90
28552;DHT22;15752;49.560;8.708;2023-02-01T00:23:55;8.80;99.90
28552;DHT22;15752;49.560;8.708;2023-02-01T00:26:27;8.80;99.90
28552;DHT22;15752;49.560;8.708;2023-02-01T00:28:59;8.70;99.90
28552;DHT22;15752;49.560;8.708;2023-02-01T00:31:28;8.70;99.90
28552;DHT22;15752;49.560;8.708;2023-02-01T00:33:58;8.90;99.90
28552;DHT22;15752;49.560;8.708;2023-02-01T00:36:27;8.90;99.90
28552;DHT22;15752;49.560;8.708;2023-02-01T00:38:56;8.70;99.90
28552;DHT22;15752;49.560;8.708;2023-02-01T00:41:25;8.70;99.90
28552;DHT22;15752;49.560;8.708;2023-02-01T00:43:53;8.70;99.90
28552;DHT22;15752;49.560;8.708;2023-02-01T00:46:22;8.80;99.90
28552;DHT22;15752;49.560;8.708;2023-02-01T00:48:51;8.90;99.90
28552;DHT22;15752;49.560;8.708;2023-02-01T00:51:23;8.70;99.90
28552;DHT22;15752;49.560;8.708;2023-02-01T00:53:55;9.00;99.90
28552;DHT22;15752;49.560;8.708;2023-02-01T00:56:24;8.90;99.90
28552;DHT22;15752;49.560;8.708;2023-02-01T00:58:54;8.80;99.90
28552;DHT22;15752;49.560;8.708;2023-02-01T01:01:24;9.00;99.90
28552;DHT22;15752;49.560;8.708;2023-02-01T01:03:56;9.10;99.90
28552;DHT22;15752;49.560;8.708;2023-02-01T01:06:28;8.80;99.90
28552;DHT22;15752;49.560;8.708;2023-02-01T01:08:59;9.10;99.90
28552;DHT22;15752;49.560;8.708;2023-02-01T01:11:30;8.80;99.90
28552;DHT22;15752;49.560;8.708;2023-02-01T01:14:00;8.80;99.90
28552;DHT22;15752;49.560;8.708;2023-02-01T01:16:30;8.90;99.90
28552;DHT22;15752;49.560;8.708;2023-02-01T01:19:00;8.80;99.90
28552;DHT22;15752;49.560;8.708;2023-02-01T01:21:31;8.90;99.90
28552;DHT22;15752;49.560;8.708;2023-02-01T01:23:59;8.80;99.90
28552;DHT22;15752;49.560;8.708;2023-02-01T01:26:29;8.90;99.90
28552;DHT22;15752;49.560;8.708;2023-02-01T01:32:23;8.80;99.90
28552;DHT22;15752;49.560;8.708;2023-02-01T01:34:51;8.80;99.90
28552;DHT22;15752;49.560;8.708;2023-02-01T01:37:21;8.80;99.90
28552;DHT22;15752;49.560;8.708;2023-02-01T01:39:49;9.00;99.90
28552;DHT22;15752;49.560;8.708;2023-02-01T01:42:22;8.80;99.90
28552;DHT22;15752;49.560;8.708;2023-02-01T01:45:00;8.80;99.90
28552;DHT22;15752;49.560;8.708;2023-02-01T01:47:34;9.10;99.90
28552;DHT22;15752;49.560;8.708;2023-02-01T01:50:07;8.80;99.90
28552;DHT22;15752;49.560;8.708;2023-02-01T01:52:41;8.80;99.90
28552;DHT22;15752;49.560;8.708;2023-02-01T01:55:10;8.80;99.90
28552;DHT22;15752;49.560;8.708;2023-02-01T01:57:42;9.00;99.90
28552;DHT22;15752;49.560;8.708;2023-02-01T02:00:14;9.00;99.90
28552;DHT22;15752;49.560;8.708;2023-02-01T02:02:46;8.80;99.90
28552;DHT22;15752;49.560;8.708;2023-02-01T02:05:18;8.80;99.90
28552;DHT22;15752;49.560;8.708;2023-02-01T02:07:50;8.80;99.90
28552;DHT22;15752;49.560;8.708;2023-02-01T02:10:19;9.10;99.90
28552;DHT22;15752;49.560;8.708;2023-02-01T02:13:08;8.90;99.90
28552;DHT22;15752;49.560;8.708;2023-02-01T02:15:43;9.10;99.90
28552;DHT22;15752;49.560;8.708;2023-02-01T02:18:18;8.90;99.90
28552;DHT22;15752;49.560;8.708;2023-02-01T02:21:06;9.00;99.90
28552;DHT22;15752;49.560;8.708;2023-02-01T02:27:12;8.80;99.90
28552;DHT22;15752;49.560;8.708;2023-02-01T02:30:37;9.00;99.90
28552;DHT22;15752;49.560;8.708;2023-02-01T02:33:46;8.80;99.90
28552;DHT22;15752;49.560;8.708;2023-02-01T02:36:24;8.80;99.90
28552;DHT22;15752;49.560;8.708;2023-02-01T02:39:05;9.10;99.90
28552;DHT22;15752;49.560;8.708;2023-02-01T02:41:44;8.80;99.90
28552;DHT22;15752;49.560;8.708;2023-02-01T02:44:39;9.10;99.90
28552;DHT22;15752;49.560;8.708;2023-02-01T02:47:35;9.10;99.90
28552;DHT22;15752;49.560;8.708;2023-02-01T02:50:17;8.80;99.90
28552;DHT22;15752;49.560;8.708;2023-02-01T02:53:10;8.80;99.90
28552;DHT22;15752;49.560;8.708;2023-02-01T02:56:00;9.10;99.90
28552;DHT22;15752;49.560;8.708;2023-02-01T02:58:49;8.80;99.90
28552;DHT22;15752;49.560;8.708;2023-02-01T03:01:36;8.80;99.90
28552;DHT22;15752;49.560;8.708;2023-02-01T03:04:23;9.00;99.90
28552;DHT22;15752;49.560;8.708;2023-02-01T03:06:54;8.80;99.90
28552;DHT22;15752;49.560;8.708;2023-02-01T03:09:26;8.90;99.90
28552;DHT22;15752;49.560;8.708;2023-02-01T03:12:00;8.90;99.90
28552;DHT22;15752;49.560;8.708;2023-02-01T03:14:52;9.10;99.90
28552;DHT22;15752;49.560;8.708;2023-02-01T03:17:30;8.80;99.90
28552;DHT22;15752;49.560;8.708;2023-02-01T03:20:03;9.10;99.90
28552;DHT22;15752;49.560;8.708;2023-02-01T03:22:36;8.80;99.90
28552;DHT22;15752;49.560;8.708;2023-02-01T03:25:08;8.80;99.90
28552;DHT22;15752;49.560;8.708;2023-02-01T03:27:41;8.80;99.90
28552;DHT22;15752;49.560;8.708;2023-02-01T03:30:18;8.80;99.90
28552;DHT22;15752;49.560;8.708;2023-02-01T03:32:51;9.00;99.90
28552;DHT22;15752;49.560;8.708;2023-02-01T03:35:36;8.90;99.90
28552;DHT22;15752;49.560;8.708;2023-02-01T03:38:14;8.70;99.90
28552;DHT22;15752;49.560;8.708;2023-02-01T03:40:50;8.70;99.90
28552;DHT22;15752;49.560;8.708;2023-02-01T03:43:21;8.80;99.90
28552;DHT22;15752;49.560;8.708;2023-02-01T03:45:54;8.80;99.90
28552;DHT22;15752;49.560;8.708;2023-02-01T03:48:28;8.90;99.90
28552;DHT22;15752;49.560;8.708;2023-02-01T03:51:01;8.70;99.90
28552;DHT22;15752;49.560;8.708;2023-02-01T03:53:35;8.80;99.90
28552;DHT22;15752;49.560;8.708;2023-02-01T03:56:06;8.90;99.90
28552;DHT22;15752;49.560;8.708;2023-02-01T03:58:35;9.10;99.90
28552;DHT22;15752;49.560;8.708;2023-02-01T04:01:03;9.10;99.90
28552;DHT22;15752;49.560;8.708;2023-02-01T04:03:36;8.80;99.90
28552;DHT22;15752;49.560;8.708;2023-02-01T04:06:04;8.80;99.90
28552;DHT22;15752;49.560;8.708;2023-02-01T04:08:34;8.80;99.90
28552;DHT22;15752;49.560;8.708;2023-02-01T04:11:03;8.80;99.90
28552;DHT22;15752;49.560;8.708;2023-02-01T04:13:31;8.80;99.90
28552;DHT22;15752;49.560;8.708;2023-02-01T04:16:00;9.10;99.90
28552;DHT22;15752;49.560;8.708;2023-02-01T04:18:28;9.00;99.90
28552;DHT22;15752;49.560;8.708;2023-02-01T04:20:56;9.00;99.90
28552;DHT22;15752;49.560;8.708;2023-02-01T04:23:25;9.10;99.90
28552;DHT22;15752;49.560;8.708;2023-02-01T04:25:59;9.10;99.90
28552;DHT22;15752;49.560;8.708;2023-02-01T04:28:28;9.00;99.90
28552;DHT22;15752;49.560;8.708;2023-02-01T04:30:56;8.80;99.90
28552;DHT22;15752;49.560;8.708;2023-02-01T04:33:25;8.80;99.90
28552;DHT22;15752;49.560;8.708;2023-02-01T04:35:54;8.80;99.90
28552;DHT22;15752;49.560;8.708;2023-02-01T04:38:22;8.80;99.90
28552;DHT22;15752;49.560;8.708;2023-02-01T04:40:50;9.10;99.90
28552;DHT22;15752;49.560;8.708;2023-02-01T04:43:20;9.10;99.90
28552;DHT22;15752;49.560;8.708;2023-02-01T04:45:49;8.80;99.90
28552;DHT22;15752;49.560;8.708;2023-02-01T04:48:18;8.80;99.90
28552;DHT22;15752;49.560;8.708;2023-02-01T04:50:50;8.90;99.90
28552;DHT22;15752;49.560;8.708;2023-02-01T04:53:19;9.10;99.90
28552;DHT22;15752;49.560;8.708;2023-02-01T04:55:48;8.90;99.90
28552;DHT22;15752;49.560;8.708;2023-02-01T04:58:17;8.90;99.90
28552;DHT22;15752;49.560;8.708;2023-02-01T05:00:47;9.10;99.90
28552;DHT22;15752;49.560;8.708;2023-02-01T05:03:16;8.90;99.90
28552;DHT22;15752;49.560;8.708;2023-02-01T05:05:46;9.20;99.90
28552;DHT22;15752;49.560;8.708;2023-02-01T05:08:15;8.90;99.90
28552;DHT22;15752;49.560;8.708;2023-02-01T05:10:44;8.90;99.90
28552;DHT22;15752;49.560;8.708;2023-02-01T05:13:13;9.20;99.90
28552;DHT22;15752;49.560;8.708;2023-02-01T05:16:00;9.10;99.90
28552;DHT22;15752;49.560;8.708;2023-02-01T05:18:28;9.20;99.90
28552;DHT22;15752;49.560;8.708;2023-02-01T05:20:57;8.90;99.90
28552;DHT22;15752;49.560;8.708;2023-02-01T05:23:25;9.10;99.90
28552;DHT22;15752;49.560;8.708;2023-02-01T05:25:58;9.10;99.90
28552;DHT22;15752;49.560;8.708;2023-02-01T05:28:28;8.90;99.90
28552;DHT22;15752;49.560;8.708;2023-02-01T05:30:56;9.10;99.90
28552;DHT22;15752;49.560;8.708;2023-02-01T05:33:26;8.90;99.90
28552;DHT22;15752;49.560;8.708;2023-02-01T05:35:54;9.20;99.90
28552;DHT22;15752;49.560;8.708;2023-02-01T05:38:23;8.90;99.90
28552;DHT22;15752;49.560;8.708;2023-02-01T05:40:51;8.90;99.90
28552;DHT22;15752;49.560;8.708;2023-02-01T05:43:19;9.10;99.90
28552;DHT22;15752;49.560;8.708;2023-02-01T05:45:48;8.90;99.90
28552;DHT22;15752;49.560;8.708;2023-02-01T05:48:16;9.10;99.90
28552;DHT22;15752;49.560;8.708;2023-02-01T05:50:46;9.10;99.90
28552;DHT22;15752;49.560;8.708;2023-02-01T05:53:14;8.90;99.90
28552;DHT22;15752;49.560;8.708;2023-02-01T05:55:43;8.90;99.90
28552;DHT22;15752;49.560;8.708;2023-02-01T05:58:11;8.90;99.90
28552;DHT22;15752;49.560;8.708;2023-02-01T06:00:40;8.90;99.90
28552;DHT22;15752;49.560;8.708;2023-02-01T06:03:08;9.20;99.90
28552;DHT22;15752;49.560;8.708;2023-02-01T06:05:36;9.20;99.90
28552;DHT22;15752;49.560;8.708;2023-02-01T06:08:06;8.90;99.90
28552;DHT22;15752;49.560;8.708;2023-02-01T06:10:35;8.90;99.90
28552;DHT22;15752;49.560;8.708;2023-02-01T06:13:04;9.00;99.90
28552;DHT22;15752;49.560;8.708;2023-02-01T06:15:32;8.90;99.90
28552;DHT22;15752;49.560;8.708;2023-02-01T06:18:00;8.90;99.90
28552;DHT22;15752;49.560;8.708;2023-02-01T06:20:29;8.90;99.90
28552;DHT22;15752;49.560;8.708;2023-02-01T06:22:57;8.90;99.90
28552;DHT22;15752;49.560;8.708;2023-02-01T06:25:27;9.00;99.90
28552;DHT22;15752;49.560;8.708;2023-02-01T06:27:55;8.90;99.90
28552;DHT22;15752;49.560;8.708;2023-02-01T06:30:28;8.90;99.90
28552;DHT22;15752;49.560;8.708;2023-02-01T06:32:57;8.90;99.90
28552;DHT22;15752;49.560;8.708;2023-02-01T06:35:25;9.20;99.90
28552;DHT22;15752;49.560;8.708;2023-02-01T06:37:54;8.90;99.90
28552;DHT22;15752;49.560;8.708;2023-02-01T06:40:22;8.90;99.90
28552;DHT22;15752;49.560;8.708;2023-02-01T06:42:52;8.90;99.90
28552;DHT22;15752;49.560;8.708;2023-02-01T06:45:20;8.90;99.90
28552;DHT22;15752;49.560;8.708;2023-02-01T06:47:49;8.90;99.90
28552;DHT22;15752;49.560;8.708;2023-02-01T06:50:17;8.90;99.90
28552;DHT22;15752;49.560;8.708;2023-02-01T06:52:46;8.90;99.90
28552;DHT22;15752;49.560;8.708;2023-02-01T06:55:14;9.10;99.90
28552;DHT22;15752;49.560;8.708;2023-02-01T06:57:42;9.10;99.90
28552;DHT22;15752;49.560;8.708;2023-02-01T07:00:13;8.90;99.90
28552;DHT22;15752;49.560;8.708;2023-02-01T07:02:42;8.90;99.90
28552;DHT22;15752;49.560;8.708;2023-02-01T07:05:10;8.90;99.90
28552;DHT22;15752;49.560;8.708;2023-02-01T07:07:39;8.80;99.90
28552;DHT22;15752;49.560;8.708;2023-02-01T07:10:08;8.90;99.90
28552;DHT22;15752;49.560;8.708;2023-02-01T07:12:37;8.90;99.90
28552;DHT22;15752;49.560;8.708;2023-02-01T07:15:06;8.80;99.90
28552;DHT22;15752;49.560;8.708;2023-02-01T07:17:36;8.80;99.90
28552;DHT22;15752;49.560;8.708;2023-02-01T07:20:06;8.80;99.90
28552;DHT22;15752;49.560;8.708;2023-02-01T07:22:35;8.80;99.90
28552;DHT22;15752;49.560;8.708;2023-02-01T07:25:05;8.80;99.90
28552;DHT22;15752;49.560;8.708;2023-02-01T07:27:34;8.80;99.90
28552;DHT22;15752;49.560;8.708;2023-02-01T07:30:03;8.80;99.90
28552;DHT22;15752;49.560;8.708;2023-02-01T07:32:32;8.80;99.90
28552;DHT22;15752;49.560;8.708;2023-02-01T07:35:02;8.80;99.90
28552;DHT22;15752;49.560;8.708;2023-02-01T07:37:31;8.80;99.90
28552;DHT22;15752;49.560;8.708;2023-02-01T07:39:59;8.80;99.90
28552;DHT22;15752;49.560;8.708;2023-02-01T07:42:27;9.00;99.90
28552;DHT22;15752;49.560;8.708;2023-02-01T07:44:56;9.10;99.90
28552;DHT22;15752;49.560;8.708;2023-02-01T07:47:40;9.10;99.90
28552;DHT22;15752;49.560;8.708;2023-02-01T07:50:10;9.10;99.90
28552;DHT22;15752;49.560;8.708;2023-02-01T07:52:38;9.20;99.90
28552;DHT22;15752;49.560;8.708;2023-02-01T07:55:08;8.80;99.90
28552;DHT22;15752;49.560;8.708;2023-02-01T07:57:37;8.80;99.90
28552;DHT22;15752;49.560;8.708;2023-02-01T08:00:06;8.80;99.90
28552;DHT22;15752;49.560;8.708;2023-02-01T08:02:53;8.90;99.90
28552;DHT22;15752;49.560;8.708;2023-02-01T08:05:23;9.00;99.90
28552;DHT22;15752;49.560;8.708;2023-02-01T08:07:51;8.90;99.90
28552;DHT22;15752;49.560;8.708;2023-02-01T08:10:19;8.90;99.90
28552;DHT22;15752;49.560;8.708;2023-02-01T08:12:48;8.80;99.90
28552;DHT22;15752;49.560;8.708;2023-02-01T08:15:18;8.90;99.90
28552;DHT22;15752;49.560;8.708;2023-02-01T08:17:47;8.90;99.90
28552;DHT22;15752;49.560;8.708;2023-02-01T08:20:17;9.20;99.90
28552;DHT22;15752;49.560;8.708;2023-02-01T08:22:47;8.90;99.90
28552;DHT22;15752;49.560;8.708;2023-02-01T08:25:15;8.90;99.90
28552;DHT22;15752;49.560;8.708;2023-02-01T08:27:44;8.90;99.90
28552;DHT22;15752;49.560;8.708;2023-02-01T08:30:13;8.90;99.90
28552;DHT22;15752;49.560;8.708;2023-02-01T08:32:42;8.90;99.90
28552;DHT22;15752;49.560;8.708;2023-02-01T08:35:10;8.90;99.90
28552;DHT22;15752;49.560;8.708;2023-02-01T08:37:39;8.90;99.90
28552;DHT22;15752;49.560;8.708;2023-02-01T08:40:10;9.10;99.90
28552;DHT22;15752;49.560;8.708;2023-02-01T08:42:40;8.90;99.90
28552;DHT22;15752;49.560;8.708;2023-02-01T08:45:23;9.10;99.90
28552;DHT22;15752;49.560;8.708;2023-02-01T08:47:53;8.90;99.90
28552;DHT22;15752;49.560;8.708;2023-02-01T08:50:22;8.90;99.90
28552;DHT22;15752;49.560;8.708;2023-02-01T08:52:52;8.90;99.90
28552;DHT22;15752;49.560;8.708;2023-02-01T08:55:22;9.00;99.90
28552;DHT22;15752;49.560;8.708;2023-02-01T08:57:51;8.90;99.90
28552;DHT22;15752;49.560;8.708;2023-02-01T09:00:19;8.90;99.90
28552;DHT22;15752;49.560;8.708;2023-02-01T09:02:49;8.90;99.90
28552;DHT22;15752;49.560;8.708;2023-02-01T09:05:17;9.00;99.90
28552;DHT22;15752;49.560;8.708;2023-02-01T09:07:49;9.00;99.90
28552;DHT22;15752;49.560;8.708;2023-02-01T09:10:18;9.00;99.90
28552;DHT22;15752;49.560;8.708;2023-02-01T09:13:02;9.10;99.90
28552;DHT22;15752;49.560;8.708;2023-02-01T09:15:31;9.20;99.90
28552;DHT22;15752;49.560;8.708;2023-02-01T09:17:59;9.00;99.90
28552;DHT22;15752;49.560;8.708;2023-02-01T09:20:28;9.20;99.90
28552;DHT22;15752;49.560;8.708;2023-02-01T09:22:56;9.00;99.90
28552;DHT22;15752;49.560;8.708;2023-02-01T09:25:25;9.20;99.90
28552;DHT22;15752;49.560;8.708;2023-02-01T09:27:54;9.10;99.90
28552;DHT22;15752;49.560;8.708;2023-02-01T09:30:23;9.40;99.90
28552;DHT22;15752;49.560;8.708;2023-02-01T09:32:52;9.10;99.90
28552;DHT22;15752;49.560;8.708;2023-02-01T09:35:21;9.10;99.90
28552;DHT22;15752;49.560;8.708;2023-02-01T09:37:49;9.10;99.90
28552;DHT22;15752;49.560;8.708;2023-02-01T09:40:18;9.30;99.90
28552;DHT22;15752;49.560;8.708;2023-02-01T09:42:56;9.20;99.90
28552;DHT22;15752;49.560;8.708;2023-02-01T09:45:42;9.20;99.90
28552;DHT22;15752;49.560;8.708;2023-02-01T09:48:16;9.40;99.90
28552;DHT22;15752;49.560;8.708;2023-02-01T09:50:49;9.20;99.90
28552;DHT22;15752;49.560;8.708;2023-02-01T09:53:24;9.20;99.90
28552;DHT22;15752;49.560;8.708;2023-02-01T09:55:56;9.20;99.90
28552;DHT22;15752;49.560;8.708;2023-02-01T09:58:32;9.40;99.90
28552;DHT22;15752;49.560;8.708;2023-02-01T10:01:10;9.20;99.90
28552;DHT22;15752;49.560;8.708;2023-02-01T10:03:43;9.20;99.90
28552;DHT22;15752;49.560;8.708;2023-02-01T10:06:45;9.30;99.90
28552;DHT22;15752;49.560;8.708;2023-02-01T10:09:39;9.50;99.90
28552;DHT22;15752;49.560;8.708;2023-02-01T10:12:39;9.30;99.90
28552;DHT22;15752;49.560;8.708;2023-02-01T10:15:34;9.50;99.90
28552;DHT22;15752;49.560;8.708;2023-02-01T10:18:30;9.30;99.90
28552;DHT22;15752;49.560;8.708;2023-02-01T10:21:21;9.40;99.90
28552;DHT22;15752;49.560;8.708;2023-02-01T10:24:06;9.40;99.90
28552;DHT22;15752;49.560;8.708;2023-02-01T10:26:46;9.40;99.90
28552;DHT22;15752;49.560;8.708;2023-02-01T10:29:22;9.40;99.90
28552;DHT22;15752;49.560;8.708;2023-02-01T10:31:52;9.40;99.90
28552;DHT22;15752;49.560;8.708;2023-02-01T10:34:26;9.40;99.90
28552;DHT22;15752;49.560;8.708;2023-02-01T10:36:57;9.60;99.90
28552;DHT22;15752;49.560;8.708;2023-02-01T10:39:28;9.40;99.90
28552;DHT22;15752;49.560;8.708;2023-02-01T10:41:57;9.40;99.90
28552;DHT22;15752;49.560;8.708;2023-02-01T10:44:28;9.60;99.90
28552;DHT22;15752;49.560;8.708;2023-02-01T10:46:58;9.40;99.90
28552;DHT22;15752;49.560;8.708;2023-02-01T10:49:33;9.40;99.90
28552;DHT22;15752;49.560;8.708;2023-02-01T10:52:12;9.40;99.90
28552;DHT22;15752;49.560;8.708;2023-02-01T10:54:43;9.50;99.90
28552;DHT22;15752;49.560;8.708;2023-02-01T10:57:20;9.60;99.90
28552;DHT22;15752;49.560;8.708;2023-02-01T10:59:52;9.50;99.90
28552;DHT22;15752;49.560;8.708;2023-02-01T11:02:27;9.40;99.90
28552;DHT22;15752;49.560;8.708;2023-02-01T11:05:05;9.60;99.90
28552;DHT22;15752;49.560;8.708;2023-02-01T11:07:37;9.50;99.90
28552;DHT22;15752;49.560;8.708;2023-02-01T11:10:34;9.50;99.90
28552;DHT22;15752;49.560;8.708;2023-02-01T11:13:05;9.50;99.90
28552;DHT22;15752;49.560;8.708;2023-02-01T11:15:47;9.70;99.90
28552;DHT22;15752;49.560;8.708;2023-02-01T11:18:26;9.80;99.90
28552;DHT22;15752;49.560;8.708;2023-02-01T11:20:58;9.50;99.90
28552;DHT22;15752;49.560;8.708;2023-02-01T11:23:29;9.50;99.90
28552;DHT22;15752;49.560;8.708;2023-02-01T11:26:01;9.60;99.90
28552;DHT22;15752;49.560;8.708;2023-02-01T11:28:39;9.50;99.90
28552;DHT22;15752;49.560;8.708;2023-02-01T11:31:11;9.60;99.90
28552;DHT22;15752;49.560;8.708;2023-02-01T11:33:48;9.60;99.90
28552;DHT22;15752;49.560;8.708;2023-02-01T11:36:23;9.60;99.90
28552;DHT22;15752;49.560;8.708;2023-02-01T11:39:08;9.60;99.90
28552;DHT22;15752;49.560;8.708;2023-02-01T11:41:42;9.60;99.90
28552;DHT22;15752;49.560;8.708;2023-02-01T11:44:20;9.80;99.90
28552;DHT22;15752;49.560;8.708;2023-02-01T11:46:50;9.60;99.90
28552;DHT22;15752;49.560;8.708;2023-02-01T11:49:22;9.60;99.90
28552;DHT22;15752;49.560;8.708;2023-02-01T11:52:07;9.90;99.90
28552;DHT22;15752;49.560;8.708;2023-02-01T11:55:01;9.60;99.90
28552;DHT22;15752;49.560;8.708;2023-02-01T11:57:52;9.80;99.90
28552;DHT22;15752;49.560;8.708;2023-02-01T12:00:39;9.60;99.90
28552;DHT22;15752;49.560;8.708;2023-02-01T12:03:53;9.60;99.90
28552;DHT22;15752;49.560;8.708;2023-02-01T12:06:48;9.60;99.90
28552;DHT22;15752;49.560;8.708;2023-02-01T12:09:34;9.60;99.90
28552;DHT22;15752;49.560;8.708;2023-02-01T12:12:17;9.60;99.90
28552;DHT22;15752;49.560;8.708;2023-02-01T12:15:18;9.70;99.90
28552;DHT22;15752;49.560;8.708;2023-02-01T12:18:24;9.60;99.90
28552;DHT22;15752;49.560;8.708;2023-02-01T12:21:27;9.60;99.90
28552;DHT22;15752;49.560;8.708;2023-02-01T12:24:18;9.70;99.90
28552;DHT22;15752;49.560;8.708;2023-02-01T12:27:42;9.60;99.90
28552;DHT22;15752;49.560;8.708;2023-02-01T12:30:48;9.80;99.90
28552;DHT22;15752;49.560;8.708;2023-02-01T12:33:34;9.60;99.90
28552;DHT22;15752;49.560;8.708;2023-02-01T12:36:17;9.80;99.90
28552;DHT22;15752;49.560;8.708;2023-02-01T12:38:57;9.60;99.90
28552;DHT22;15752;49.560;8.708;2023-02-01T12:41:47;9.60;99.90
28552;DHT22;15752;49.560;8.708;2023-02-01T12:44:32;9.60;99.90
28552;DHT22;15752;49.560;8.708;2023-02-01T12:47:09;9.60;99.90
28552;DHT22;15752;49.560;8.708;2023-02-01T12:49:47;9.60;99.90
28552;DHT22;15752;49.560;8.708;2023-02-01T12:52:22;9.60;99.90
28552;DHT22;15752;49.560;8.708;2023-02-01T12:54:59;9.80;99.90
28552;DHT22;15752;49.560;8.708;2023-02-01T12:57:35;9.80;99.90
28552;DHT22;15752;49.560;8.708;2023-02-01T13:00:22;9.60;99.90
28552;DHT22;15752;49.560;8.708;2023-02-01T13:02:59;9.60;99.90
28552;DHT22;15752;49.560;8.708;2023-02-01T13:05:34;9.60;99.90
28552;DHT22;15752;49.560;8.708;2023-02-01T13:08:23;9.60;99.90
28552;DHT22;15752;49.560;8.708;2023-02-01T13:10:58;9.60;99.90
28552;DHT22;15752;49.560;8.708;2023-02-01T13:13:35;9.80;99.90
28552;DHT22;15752;49.560;8.708;2023-02-01T13:16:15;9.60;99.90
28552;DHT22;15752;49.560;8.708;2023-02-01T13:18:49;9.60;99.90
28552;DHT22;15752;49.560;8.708;2023-02-01T13:21:22;9.60;99.90
28552;DHT22;15752;49.560;8.708;2023-02-01T13:23:54;9.70;99.90
28552;DHT22;15752;49.560;8.708;2023-02-01T13:26:22;9.60;99.90
28552;DHT22;15752;49.560;8.708;2023-02-01T13:28:55;9.80;99.90
28552;DHT22;15752;49.560;8.708;2023-02-01T13:31:51;9.70;99.90
28552;DHT22;15752;49.560;8.708;2023-02-01T13:40:46;9.90;99.90
28552;DHT22;15752;49.560;8.708;2023-02-01T13:43:23;9.70;99.90
28552;DHT22;15752;49.560;8.708;2023-02-01T13:45:57;9.70;99.90
28552;DHT22;15752;49.560;8.708;2023-02-01T13:48:38;9.70;99.90
28552;DHT22;15752;49.560;8.708;2023-02-01T13:51:08;9.80;99.90
28552;DHT22;15752;49.560;8.708;2023-02-01T13:53:37;9.70;99.90
28552;DHT22;15752;49.560;8.708;2023-02-01T13:56:14;9.80;99.90
28552;DHT22;15752;49.560;8.708;2023-02-01T13:58:45;9.60;99.90
28552;DHT22;15752;49.560;8.708;2023-02-01T14:01:46;9.60;99.90
28552;DHT22;15752;49.560;8.708;2023-02-01T14:04:48;9.70;99.90
28552;DHT22;15752;49.560;8.708;2023-02-01T14:07:19;9.70;99.90
28552;DHT22;15752;49.560;8.708;2023-02-01T14:09:49;9.70;99.90
28552;DHT22;15752;49.560;8.708;2023-02-01T14:12:44;9.80;99.90
28552;DHT22;15752;49.560;8.708;2023-02-01T14:15:22;9.70;99.90
28552;DHT22;15752;49.560;8.708;2023-02-01T14:17:54;9.60;99.90
28552;DHT22;15752;49.560;8.708;2023-02-01T14:20:47;9.60;99.90
28552;DHT22;15752;49.560;8.708;2023-02-01T14:23:28;9.60;99.90
28552;DHT22;15752;49.560;8.708;2023-02-01T14:28:31;9.60;99.90
28552;DHT22;15752;49.560;8.708;2023-02-01T14:31:00;9.70;99.90
28552;DHT22;15752;49.560;8.708;2023-02-01T14:33:30;9.80;99.90
28552;DHT22;15752;49.560;8.708;2023-02-01T14:36:05;9.70;99.90
28552;DHT22;15752;49.560;8.708;2023-02-01T14:38:37;9.70;99.90
28552;DHT22;15752;49.560;8.708;2023-02-01T14:41:23;9.90;99.90
28552;DHT22;15752;49.560;8.708;2023-02-01T14:47:07;9.70;99.90
28552;DHT22;15752;49.560;8.708;2023-02-01T14:49:56;9.70;99.90
28552;DHT22;15752;49.560;8.708;2023-02-01T14:52:33;9.70;99.90
28552;DHT22;15752;49.560;8.708;2023-02-01T14:55:06;9.70;99.90
28552;DHT22;15752;49.560;8.708;2023-02-01T14:57:40;9.70;99.90
28552;DHT22;15752;49.560;8.708;2023-02-01T15:00:23;10.00;99.90
28552;DHT22;15752;49.560;8.708;2023-02-01T15:02:55;9.70;99.70
28552;DHT22;15752;49.560;8.708;2023-02-01T15:05:33;10.00;99.90
28552;DHT22;15752;49.560;8.708;2023-02-01T15:08:11;9.70;99.80
28552;DHT22;15752;49.560;8.708;2023-02-01T15:10:45;9.80;99.80
28552;DHT22;15752;49.560;8.708;2023-02-01T15:13:20;9.70;99.70
28552;DHT22;15752;49.560;8.708;2023-02-01T15:16:01;9.90;99.90
28552;DHT22;15752;49.560;8.708;2023-02-01T15:18:33;10.00;99.80
28552;DHT22;15752;49.560;8.708;2023-02-01T15:21:04;9.70;99.70
28552;DHT22;15752;49.560;8.708;2023-02-01T15:24:11;9.70;99.70
28552;DHT22;15752;49.560;8.708;2023-02-01T15:26:40;9.70;99.70
28552;DHT22;15752;49.560;8.708;2023-02-01T15:29:11;9.70;99.80
28552;DHT22;15752;49.560;8.708;2023-02-01T15:31:42;9.80;99.70
28552;DHT22;15752;49.560;8.708;2023-02-01T15:34:13;10.00;99.80
28552;DHT22;15752;49.560;8.708;2023-02-01T15:36:43;10.10;99.70
28552;DHT22;15752;49.560;8.708;2023-02-01T15:39:28;10.00;99.70
28552;DHT22;15752;49.560;8.708;2023-02-01T15:42:01;10.00;99.70
28552;DHT22;15752;49.560;8.708;2023-02-01T15:44:39;9.80;99.60
28552;DHT22;15752;49.560;8.708;2023-02-01T15:47:19;10.10;99.60
28552;DHT22;15752;49.560;8.708;2023-02-01T15:49:51;10.10;99.40
28552;DHT22;15752;49.560;8.708;2023-02-01T15:52:27;9.90;99.40
28552;DHT22;15752;49.560;8.708;2023-02-01T15:55:05;9.80;99.40
28552;DHT22;15752;49.560;8.708;2023-02-01T15:57:38;9.80;99.50
28552;DHT22;15752;49.560;8.708;2023-02-01T16:00:21;9.80;99.60
28552;DHT22;15752;49.560;8.708;2023-02-01T16:02:54;9.90;99.20
28552;DHT22;15752;49.560;8.708;2023-02-01T16:05:31;10.10;99.60
28552;DHT22;15752;49.560;8.708;2023-02-01T16:08:06;9.90;99.50
28552;DHT22;15752;49.560;8.708;2023-02-01T16:10:42;9.90;99.50
28552;DHT22;15752;49.560;8.708;2023-02-01T16:13:13;9.90;99.50
28552;DHT22;15752;49.560;8.708;2023-02-01T16:15:42;10.10;99.90
28552;DHT22;15752;49.560;8.708;2023-02-01T16:18:12;10.00;99.60
28552;DHT22;15752;49.560;8.708;2023-02-01T16:20:44;10.20;99.50
28552;DHT22;15752;49.560;8.708;2023-02-01T16:23:41;9.90;99.50
28552;DHT22;15752;49.560;8.708;2023-02-01T16:26:20;9.90;99.30
28552;DHT22;15752;49.560;8.708;2023-02-01T16:28:48;9.90;99.40
28552;DHT22;15752;49.560;8.708;2023-02-01T16:31:18;10.20;99.20
28552;DHT22;15752;49.560;8.708;2023-02-01T16:33:50;10.10;99.40
28552;DHT22;15752;49.560;8.708;2023-02-01T16:36:19;10.00;99.40
28552;DHT22;15752;49.560;8.708;2023-02-01T16:38:49;9.90;99.40
28552;DHT22;15752;49.560;8.708;2023-02-01T16:41:22;10.20;99.30
28552;DHT22;15752;49.560;8.708;2023-02-01T16:43:52;9.90;99.40
28552;DHT22;15752;49.560;8.708;2023-02-01T16:46:25;9.90;99.40
28552;DHT22;15752;49.560;8.708;2023-02-01T16:48:57;10.00;99.40
28552;DHT22;15752;49.560;8.708;2023-02-01T16:51:29;9.90;99.40